Time;durP1;ratioP1;P1;durP2;ratioP2;P2;SDS_P1;SDS_P2;PMS_P1;PMS_P2;Temp;Humidity;BMP_temperature;BMP_pressure;BME280_temperature;BME280_humidity;BME280_pressure;Samples;Min_cycle;Max_cycle;Signal;HPM_P1;HPM_P2
2022/01/17 00:01:32;;;;;;;;;;;2.50;97.80;;;;;;5023298;28;20239;-71
2022/01/17 00:03:57;;;;;;;;;;;2.50;97.80;;;;;;5023192;28;20000;-71
2022/01/17 00:06:23;;;;;;;;;;;2.50;97.80;;;;;;5023936;28;19909;-70
2022/01/17 00:08:49;;;;;;;;;;;2.50;97.80;;;;;;5024019;28;19968;-71
2022/01/17 00:11:16;;;;;;;;;;;2.50;97.80;;;;;;5006583;28;19909;-72
2022/01/17 00:13:43;;;;;;;;;;;2.50;97.60;;;;;;5005633;28;19917;-71
2022/01/17 00:16:12;;;;;;;;;;;2.40;97.80;;;;;;5022652;28;20200;-72
2022/01/17 00:21:04;;;;;;;;;;;2.40;97.90;;;;;;5023857;28;19909;-71
2022/01/17 00:23:30;;;;;;;;;;;2.40;97.90;;;;;;5006274;28;19917;-72
2022/01/17 00:25:56;;;;;;;;;;;2.40;97.90;;;;;;5023622;28;19913;-72
2022/01/17 00:28:21;;;;;;;;;;;2.40;97.90;;;;;;5024389;28;19914;-72
2022/01/17 00:30:47;;;;;;;;;;;2.40;97.90;;;;;;5023568;28;19913;-72
2022/01/17 00:33:13;;;;;;;;;;;2.40;97.90;;;;;;5024649;28;20254;-72
2022/01/17 00:35:38;;;;;;;;;;;2.40;97.90;;;;;;5023256;28;19972;-72
2022/01/17 00:38:04;;;;;;;;;;;2.50;97.70;;;;;;5024459;28;19913;-72
2022/01/17 00:40:30;;;;;;;;;;;2.40;97.80;;;;;;5023189;28;19917;-71
2022/01/17 00:42:56;;;;;;;;;;;2.40;97.90;;;;;;5023476;28;19917;-71
2022/01/17 00:45:27;;;;;;;;;;;2.40;98.10;;;;;;5023033;28;20104;-72
2022/01/17 00:47:56;;;;;;;;;;;2.40;98.30;;;;;;5023293;28;19909;-71
2022/01/17 00:50:23;;;;;;;;;;;2.40;98.40;;;;;;5023313;28;19909;-71
2022/01/17 00:52:48;;;;;;;;;;;2.30;98.50;;;;;;5006669;28;19910;-72
2022/01/17 00:55:14;;;;;;;;;;;2.40;98.30;;;;;;5005414;28;19917;-72
2022/01/17 00:57:40;;;;;;;;;;;2.30;98.30;;;;;;5022911;28;19914;-71
2022/01/17 01:00:07;;;;;;;;;;;2.30;98.50;;;;;;5024140;28;19910;-71
2022/01/17 01:02:33;;;;;;;;;;;2.30;98.60;;;;;;5023987;28;19909;-70
2022/01/17 01:04:59;;;;;;;;;;;2.30;98.70;;;;;;5022939;28;19956;-71
2022/01/17 01:07:24;;;;;;;;;;;2.30;98.60;;;;;;5006834;28;19909;-72
2022/01/17 01:10:02;;;;;;;;;;;2.30;98.50;;;;;;5023997;28;19913;-72
2022/01/17 01:12:27;;;;;;;;;;;2.30;98.60;;;;;;5008378;28;19910;-71
2022/01/17 01:14:53;;;;;;;;;;;2.30;98.60;;;;;;5023762;28;19916;-72
2022/01/17 01:17:34;;;;;;;;;;;2.30;98.50;;;;;;5020584;28;19924;-72
2022/01/17 01:20:22;;;;;;;;;;;2.30;98.60;;;;;;5023624;28;19909;-71
2022/01/17 01:28:16;;;;;;;;;;;2.40;98.40;;;;;;5023689;28;19921;-72
2022/01/17 01:30:46;;;;;;;;;;;2.30;98.50;;;;;;5023600;28;19909;-71
2022/01/17 01:33:18;;;;;;;;;;;2.40;98.50;;;;;;5023627;28;19910;-72
2022/01/17 01:35:46;;;;;;;;;;;2.40;98.30;;;;;;5006755;28;20151;-72
2022/01/17 01:38:12;;;;;;;;;;;2.40;98.30;;;;;;5022838;28;19991;-72
2022/01/17 01:40:38;;;;;;;;;;;2.40;98.30;;;;;;4989923;28;19916;-71
2022/01/17 01:43:03;;;;;;;;;;;2.40;98.30;;;;;;5006224;28;19952;-72
2022/01/17 01:45:29;;;;;;;;;;;2.40;98.30;;;;;;5005714;28;19976;-72
2022/01/17 01:47:55;;;;;;;;;;;2.40;98.40;;;;;;5005877;28;20201;-72
2022/01/17 01:50:22;;;;;;;;;;;2.40;98.30;;;;;;5005837;28;19932;-72
2022/01/17 01:52:48;;;;;;;;;;;2.40;98.40;;;;;;5023332;28;20139;-72
2022/01/17 01:55:15;;;;;;;;;;;2.40;98.30;;;;;;5017694;28;19917;-72
2022/01/17 01:57:42;;;;;;;;;;;2.40;98.30;;;;;;5018825;28;19914;-72
2022/01/17 02:00:08;;;;;;;;;;;2.50;98.30;;;;;;5002539;28;19956;-72
2022/01/17 02:02:34;;;;;;;;;;;2.50;98.20;;;;;;5002515;28;20255;-72
2022/01/17 02:05:01;;;;;;;;;;;2.40;98.30;;;;;;5003430;28;19916;-72
2022/01/17 02:07:26;;;;;;;;;;;2.50;98.20;;;;;;5018696;28;19910;-72
2022/01/17 02:09:53;;;;;;;;;;;2.50;98.30;;;;;;5003215;28;19941;-71
2022/01/17 02:12:21;;;;;;;;;;;2.50;98.30;;;;;;5003591;28;19925;-72
2022/01/17 02:14:50;;;;;;;;;;;2.50;98.30;;;;;;5018105;28;20193;-72
2022/01/17 02:17:16;;;;;;;;;;;2.40;98.30;;;;;;5003362;28;19914;-72
2022/01/17 02:19:46;;;;;;;;;;;2.50;98.30;;;;;;5002149;28;20100;-70
2022/01/17 02:22:15;;;;;;;;;;;2.50;98.20;;;;;;5023178;28;20267;-72
2022/01/17 02:24:40;;;;;;;;;;;2.50;98.20;;;;;;5022445;28;19909;-72
2022/01/17 02:27:06;;;;;;;;;;;2.50;98.20;;;;;;5022753;28;19914;-71
2022/01/17 02:29:32;;;;;;;;;;;2.50;98.30;;;;;;5023040;28;19917;-72
2022/01/17 02:31:57;;;;;;;;;;;2.50;98.20;;;;;;5023007;28;19916;-72
2022/01/17 02:34:23;;;;;;;;;;;2.50;98.20;;;;;;5022664;28;19940;-72
2022/01/17 02:36:49;;;;;;;;;;;2.50;98.20;;;;;;5023282;28;19953;-72
2022/01/17 02:39:14;;;;;;;;;;;2.50;98.30;;;;;;5025661;28;19917;-72
2022/01/17 02:41:42;;;;;;;;;;;2.50;98.20;;;;;;5025637;28;19913;-72
2022/01/17 02:44:08;;;;;;;;;;;2.50;98.30;;;;;;5025429;28;19909;-72
2022/01/17 02:46:34;;;;;;;;;;;2.50;98.30;;;;;;5026427;28;19917;-72
2022/01/17 02:49:00;;;;;;;;;;;2.50;98.40;;;;;;5025424;28;19909;-72
2022/01/17 02:51:26;;;;;;;;;;;2.50;98.40;;;;;;5008545;28;19910;-71
2022/01/17 02:53:52;;;;;;;;;;;2.50;98.40;;;;;;5026392;28;20160;-71
2022/01/17 02:56:18;;;;;;;;;;;2.50;98.30;;;;;;5025699;28;19932;-72
2022/01/17 02:58:43;;;;;;;;;;;2.50;98.30;;;;;;5021183;28;19974;-72
2022/01/17 03:01:14;;;;;;;;;;;2.50;98.30;;;;;;5006779;28;19917;-72
2022/01/17 03:03:43;;;;;;;;;;;2.50;98.30;;;;;;5004793;28;19910;-72
2022/01/17 03:06:09;;;;;;;;;;;2.50;98.30;;;;;;5005260;28;19910;-72
2022/01/17 03:08:35;;;;;;;;;;;2.50;98.40;;;;;;5007516;28;19916;-71
2022/01/17 03:11:05;;;;;;;;;;;2.50;98.50;;;;;;5025909;28;19987;-72
2022/01/17 03:13:32;;;;;;;;;;;2.50;98.50;;;;;;5024657;28;19909;-71
2022/01/17 03:16:00;;;;;;;;;;;2.50;98.50;;;;;;5005107;28;19952;-72
2022/01/17 03:18:33;;;;;;;;;;;2.50;98.40;;;;;;5006268;28;19949;-72
2022/01/17 03:20:59;;;;;;;;;;;2.50;98.40;;;;;;5005677;28;19914;-72
2022/01/17 03:23:25;;;;;;;;;;;2.50;98.40;;;;;;5006313;28;19910;-72
2022/01/17 03:25:50;;;;;;;;;;;2.50;98.40;;;;;;5004637;28;19910;-72
2022/01/17 03:28:16;;;;;;;;;;;2.50;98.50;;;;;;5042566;23;19921;-68
2022/01/17 03:30:42;;;;;;;;;;;2.50;98.40;;;;;;5045638;28;19936;-68
2022/01/17 03:33:09;;;;;;;;;;;2.50;98.50;;;;;;5077836;28;19910;-68
2022/01/17 03:35:38;;;;;;;;;;;2.60;98.40;;;;;;5077204;28;19917;-68
2022/01/17 03:38:05;;;;;;;;;;;2.60;98.30;;;;;;5080514;28;19909;-69
2022/01/17 03:40:31;;;;;;;;;;;2.60;98.20;;;;;;5041991;28;19913;-69
2022/01/17 03:42:57;;;;;;;;;;;2.60;98.40;;;;;;5027670;28;19908;-69
2022/01/17 03:45:22;;;;;;;;;;;2.60;98.50;;;;;;5047029;28;20093;-68
2022/01/17 03:47:48;;;;;;;;;;;2.60;98.50;;;;;;5064991;28;19992;-69
2022/01/17 03:50:16;;;;;;;;;;;2.60;98.40;;;;;;5056342;28;19909;-69
2022/01/17 03:52:42;;;;;;;;;;;2.60;98.50;;;;;;5048368;28;19916;-69
2022/01/17 03:55:09;;;;;;;;;;;2.60;98.40;;;;;;5060172;28;19909;-69
2022/01/17 03:57:35;;;;;;;;;;;2.70;98.40;;;;;;5063878;28;19908;-69
2022/01/17 04:00:02;;;;;;;;;;;2.70;98.50;;;;;;5065163;28;19947;-69
2022/01/17 04:02:27;;;;;;;;;;;2.60;98.50;;;;;;5047533;28;20115;-69
2022/01/17 04:04:53;;;;;;;;;;;2.60;98.60;;;;;;5064777;28;19917;-69
2022/01/17 04:07:19;;;;;;;;;;;2.60;98.40;;;;;;5064899;28;19967;-69
2022/01/17 04:09:44;;;;;;;;;;;2.60;98.40;;;;;;5064966;28;19908;-69
2022/01/17 04:12:10;;;;;;;;;;;2.60;98.40;;;;;;5064015;28;19916;-69
2022/01/17 04:14:38;;;;;;;;;;;2.60;98.50;;;;;;5064727;28;20202;-69
2022/01/17 04:17:05;;;;;;;;;;;2.60;98.50;;;;;;5063869;28;19946;-69
2022/01/17 04:19:31;;;;;;;;;;;2.60;98.70;;;;;;5047452;28;20158;-69
2022/01/17 04:21:57;;;;;;;;;;;2.60;98.60;;;;;;5064894;28;19909;-69
2022/01/17 04:24:23;;;;;;;;;;;2.60;98.60;;;;;;5062809;28;19909;-70
2022/01/17 04:26:49;;;;;;;;;;;2.60;98.80;;;;;;5063309;28;19916;-69
2022/01/17 04:29:14;;;;;;;;;;;2.60;98.70;;;;;;5063375;28;19913;-70
2022/01/17 04:31:40;;;;;;;;;;;2.60;98.60;;;;;;5063807;28;20258;-69
2022/01/17 04:34:06;;;;;;;;;;;2.60;98.60;;;;;;5063348;28;19909;-69
2022/01/17 04:36:32;;;;;;;;;;;2.60;98.60;;;;;;5063861;28;19917;-70
2022/01/17 04:38:57;;;;;;;;;;;2.60;98.50;;;;;;5063198;28;19913;-69
2022/01/17 04:41:34;;;;;;;;;;;2.60;98.60;;;;;;5063163;28;19912;-69
2022/01/17 04:45:07;;;;;;;;;;;2.60;98.50;;;;;;5063350;28;19908;-69
2022/01/17 04:46:46;;;;;;;;;;;2.60;98.50;;;;;;5063236;28;19909;-69
2022/01/17 04:49:11;;;;;;;;;;;2.60;98.60;;;;;;5063000;28;20200;-70
2022/01/17 04:51:38;;;;;;;;;;;2.60;98.60;;;;;;5046001;28;20005;-70
2022/01/17 04:56:55;;;;;;;;;;;2.70;98.40;;;;;;5062057;28;19920;-69
2022/01/17 04:59:21;;;;;;;;;;;2.70;98.30;;;;;;5063697;28;20254;-69
2022/01/17 05:01:47;;;;;;;;;;;2.70;98.30;;;;;;5062847;28;19915;-69
2022/01/17 05:04:12;;;;;;;;;;;2.70;98.30;;;;;;5063685;28;19909;-70
2022/01/17 05:06:38;;;;;;;;;;;2.70;98.40;;;;;;5061530;28;19940;-70
2022/01/17 05:09:04;;;;;;;;;;;2.70;98.30;;;;;;5062558;28;19909;-69
2022/01/17 05:11:31;;;;;;;;;;;2.70;98.50;;;;;;5029606;28;19916;-69
2022/01/17 05:13:57;;;;;;;;;;;2.70;98.50;;;;;;5063129;28;19912;-69
2022/01/17 05:16:31;;;;;;;;;;;2.70;98.50;;;;;;5062455;28;19908;-69
2022/01/17 05:21:40;;;;;;;;;;;2.70;98.30;;;;;;5063280;28;20108;-69
2022/01/17 05:24:06;;;;;;;;;;;2.70;98.30;;;;;;5062326;28;19909;-69
2022/01/17 05:26:32;;;;;;;;;;;2.60;98.40;;;;;;5062539;28;20108;-69
2022/01/17 05:28:57;;;;;;;;;;;2.60;98.30;;;;;;5062144;28;19916;-68
2022/01/17 05:31:23;;;;;;;;;;;2.70;98.30;;;;;;5054083;28;19917;-69
2022/01/17 05:33:49;;;;;;;;;;;2.60;98.50;;;;;;5042362;28;19909;-69
2022/01/17 05:36:14;;;;;;;;;;;2.60;98.50;;;;;;5042982;28;19909;-69
2022/01/17 05:38:40;;;;;;;;;;;2.60;98.70;;;;;;5042890;28;19971;-69
2022/01/17 05:41:06;;;;;;;;;;;2.60;98.60;;;;;;5043196;28;19909;-69
2022/01/17 05:43:32;;;;;;;;;;;2.60;98.60;;;;;;5049299;28;20226;-69
2022/01/17 05:45:57;;;;;;;;;;;2.60;98.60;;;;;;5046794;28;19928;-69
2022/01/17 05:48:23;;;;;;;;;;;2.70;98.50;;;;;;5061698;28;19909;-69
2022/01/17 05:50:49;;;;;;;;;;;2.60;98.40;;;;;;5062883;28;19955;-69
2022/01/17 05:53:14;;;;;;;;;;;2.70;98.50;;;;;;5052518;28;20124;-69
2022/01/17 05:55:40;;;;;;;;;;;2.70;98.60;;;;;;5047510;28;19925;-69
2022/01/17 05:58:06;;;;;;;;;;;2.60;98.60;;;;;;5053491;28;19983;-69
2022/01/17 06:00:32;;;;;;;;;;;2.60;98.70;;;;;;5049494;28;19948;-69
2022/01/17 06:02:58;;;;;;;;;;;2.60;98.80;;;;;;5061685;28;19908;-69
2022/01/17 06:05:23;;;;;;;;;;;2.70;98.80;;;;;;5062564;28;19916;-69
2022/01/17 06:07:49;;;;;;;;;;;2.60;98.70;;;;;;5057722;28;20203;-69
2022/01/17 06:10:15;;;;;;;;;;;2.70;98.60;;;;;;5042024;28;20131;-68
2022/01/17 06:12:41;;;;;;;;;;;2.70;98.70;;;;;;5039770;28;20280;-69
2022/01/17 06:15:07;;;;;;;;;;;2.70;98.40;;;;;;5045482;28;19913;-70
2022/01/17 06:17:32;;;;;;;;;;;2.70;98.60;;;;;;5063997;28;19916;-71
2022/01/17 06:19:58;;;;;;;;;;;2.60;98.60;;;;;;5055533;28;19914;-70
2022/01/17 06:22:24;;;;;;;;;;;2.60;98.60;;;;;;5032279;28;19909;-70
2022/01/17 06:24:49;;;;;;;;;;;2.60;98.50;;;;;;5048161;28;20007;-69
2022/01/17 06:27:15;;;;;;;;;;;2.60;98.50;;;;;;5066245;28;19908;-69
2022/01/17 06:29:41;;;;;;;;;;;2.60;98.50;;;;;;5066680;28;19908;-69
2022/01/17 06:32:07;;;;;;;;;;;2.60;98.30;;;;;;5066563;28;19916;-69
2022/01/17 06:34:33;;;;;;;;;;;2.60;98.40;;;;;;5065024;28;19916;-69
2022/01/17 06:36:59;;;;;;;;;;;2.60;98.40;;;;;;5066265;28;19908;-70
2022/01/17 06:39:24;;;;;;;;;;;2.60;98.50;;;;;;5048432;28;20235;-70
2022/01/17 06:41:50;;;;;;;;;;;2.60;98.50;;;;;;5065227;28;19909;-70
2022/01/17 06:44:17;;;;;;;;;;;2.60;98.50;;;;;;5064437;28;20212;-70
2022/01/17 06:46:42;;;;;;;;;;;2.60;98.50;;;;;;5066112;28;20208;-70
2022/01/17 06:49:08;;;;;;;;;;;2.50;98.50;;;;;;5065076;28;19915;-70
2022/01/17 06:51:35;;;;;;;;;;;2.50;98.60;;;;;;5066137;28;19970;-70
2022/01/17 06:54:00;;;;;;;;;;;2.50;98.60;;;;;;5066108;28;19909;-70
2022/01/17 06:56:26;;;;;;;;;;;2.50;98.60;;;;;;5065895;28;20140;-70
2022/01/17 06:58:52;;;;;;;;;;;2.60;98.50;;;;;;5063828;28;19912;-70
2022/01/17 07:01:18;;;;;;;;;;;2.60;98.50;;;;;;5066058;28;20203;-69
2022/01/17 07:03:44;;;;;;;;;;;2.60;98.50;;;;;;5064841;28;19955;-70
2022/01/17 07:06:10;;;;;;;;;;;2.60;98.50;;;;;;5065553;28;19913;-70
2022/01/17 07:08:35;;;;;;;;;;;2.60;98.50;;;;;;5065722;28;20222;-69
2022/01/17 07:11:01;;;;;;;;;;;2.60;98.60;;;;;;5064778;28;19974;-70
2022/01/17 07:13:27;;;;;;;;;;;2.60;98.50;;;;;;5064263;28;19916;-70
2022/01/17 07:15:53;;;;;;;;;;;2.60;98.40;;;;;;5064431;28;19966;-69
2022/01/17 07:18:18;;;;;;;;;;;2.60;98.50;;;;;;5065488;28;20160;-70
2022/01/17 07:20:44;;;;;;;;;;;2.60;98.40;;;;;;5064488;28;19962;-70
2022/01/17 07:23:10;;;;;;;;;;;2.70;98.40;;;;;;5061315;28;19908;-70
2022/01/17 07:25:38;;;;;;;;;;;2.70;98.30;;;;;;5053921;28;19920;-70
2022/01/17 07:28:13;;;;;;;;;;;2.70;98.20;;;;;;5052977;28;20364;-69
2022/01/17 07:30:39;;;;;;;;;;;2.70;98.40;;;;;;5065526;28;19908;-69
2022/01/17 07:33:05;;;;;;;;;;;2.70;98.30;;;;;;5065438;28;20204;-69
2022/01/17 07:35:31;;;;;;;;;;;2.60;98.40;;;;;;5047363;28;20181;-69
2022/01/17 07:37:56;;;;;;;;;;;2.60;98.50;;;;;;5065008;28;20061;-69
2022/01/17 07:40:22;;;;;;;;;;;2.60;98.50;;;;;;5065339;28;19951;-70
2022/01/17 07:42:48;;;;;;;;;;;2.70;98.60;;;;;;5064062;28;20232;-70
2022/01/17 07:45:16;;;;;;;;;;;2.70;98.50;;;;;;5063816;28;19913;-69
2022/01/17 07:47:56;;;;;;;;;;;2.70;98.70;;;;;;5064993;28;20052;-70
2022/01/17 07:50:23;;;;;;;;;;;2.60;98.50;;;;;;5049501;28;19909;-70
2022/01/17 07:52:50;;;;;;;;;;;2.70;98.50;;;;;;5064903;28;19947;-69
2022/01/17 07:55:15;;;;;;;;;;;2.70;98.50;;;;;;5057977;28;19917;-70
2022/01/17 07:57:41;;;;;;;;;;;2.70;98.40;;;;;;5051596;28;20136;-70
2022/01/17 08:00:09;;;;;;;;;;;2.80;98.40;;;;;;5057233;28;20210;-70
2022/01/17 08:02:34;;;;;;;;;;;2.70;98.40;;;;;;5044748;28;19915;-70
2022/01/17 08:05:01;;;;;;;;;;;2.70;98.40;;;;;;5043561;28;19933;-70
2022/01/17 08:07:26;;;;;;;;;;;2.80;98.30;;;;;;5043538;28;20236;-71
2022/01/17 08:09:52;;;;;;;;;;;2.80;98.10;;;;;;5043758;28;19955;-70
2022/01/17 08:12:17;;;;;;;;;;;2.80;98.10;;;;;;5045225;28;20084;-71
2022/01/17 08:14:43;;;;;;;;;;;2.90;98.10;;;;;;5053428;28;19982;-70
2022/01/17 08:17:09;;;;;;;;;;;2.90;98.10;;;;;;5043373;28;19916;-71
2022/01/17 08:19:35;;;;;;;;;;;2.90;98.00;;;;;;5044569;28;19913;-71
2022/01/17 08:22:01;;;;;;;;;;;3.00;98.00;;;;;;5043097;28;19935;-71
2022/01/17 08:24:27;;;;;;;;;;;3.00;97.80;;;;;;5043068;28;19920;-70
2022/01/17 08:26:53;;;;;;;;;;;3.00;97.60;;;;;;5051988;28;19909;-71
2022/01/17 08:29:19;;;;;;;;;;;3.00;97.70;;;;;;5043919;28;19912;-70
2022/01/17 08:31:47;;;;;;;;;;;3.00;97.60;;;;;;5043142;28;19979;-70
2022/01/17 08:34:17;;;;;;;;;;;3.00;97.70;;;;;;5048103;28;19909;-71
2022/01/17 08:36:44;;;;;;;;;;;3.00;97.60;;;;;;5063879;28;19909;-70
2022/01/17 08:39:10;;;;;;;;;;;3.10;97.60;;;;;;5063045;28;19912;-70
2022/01/17 08:41:37;;;;;;;;;;;3.10;97.50;;;;;;5062835;28;19909;-70
2022/01/17 08:44:03;;;;;;;;;;;3.20;97.40;;;;;;5046411;28;19917;-70
2022/01/17 08:46:29;;;;;;;;;;;3.10;97.30;;;;;;5063604;28;19909;-71
2022/01/17 08:48:54;;;;;;;;;;;3.20;97.30;;;;;;5063712;28;20223;-71
2022/01/17 08:51:20;;;;;;;;;;;3.20;97.10;;;;;;5063908;28;19931;-70
2022/01/17 08:53:46;;;;;;;;;;;3.20;97.20;;;;;;5063797;28;19916;-70
2022/01/17 08:56:12;;;;;;;;;;;3.20;97.20;;;;;;5063469;28;19980;-71
2022/01/17 08:58:37;;;;;;;;;;;3.30;96.90;;;;;;5061315;28;19916;-70
2022/01/17 09:01:03;;;;;;;;;;;3.30;96.90;;;;;;5063511;28;19913;-70
2022/01/17 09:03:29;;;;;;;;;;;3.30;96.80;;;;;;5063677;28;19915;-70
2022/01/17 09:05:54;;;;;;;;;;;3.30;96.90;;;;;;5063283;28;19947;-70
2022/01/17 09:08:20;;;;;;;;;;;3.30;96.90;;;;;;5063546;28;19984;-71
2022/01/17 09:10:47;;;;;;;;;;;3.30;97.00;;;;;;5045818;28;19909;-71
2022/01/17 09:13:12;;;;;;;;;;;3.30;97.00;;;;;;5045042;28;19931;-70
2022/01/17 09:15:38;;;;;;;;;;;3.40;96.80;;;;;;5063124;28;19913;-71
2022/01/17 09:18:04;;;;;;;;;;;3.40;96.70;;;;;;5063046;28;19909;-72
2022/01/17 09:20:34;;;;;;;;;;;3.40;96.90;;;;;;5056205;28;19974;-75
2022/01/17 09:23:03;;;;;;;;;;;3.40;96.60;;;;;;5046637;28;19909;-71
2022/01/17 09:25:29;;;;;;;;;;;3.30;96.70;;;;;;5041797;28;20116;-76
2022/01/17 09:27:54;;;;;;;;;;;3.30;96.80;;;;;;5042951;28;19976;-72
2022/01/17 09:30:20;;;;;;;;;;;3.30;96.80;;;;;;5043086;28;19913;-74
2022/01/17 09:32:46;;;;;;;;;;;3.40;96.80;;;;;;5043031;28;19913;-74
2022/01/17 09:35:11;;;;;;;;;;;3.40;96.70;;;;;;5041617;28;20208;-72
2022/01/17 09:37:38;;;;;;;;;;;3.50;96.40;;;;;;5043013;28;19917;-75
2022/01/17 09:40:05;;;;;;;;;;;3.50;96.50;;;;;;5060870;28;20200;-74
2022/01/17 09:42:35;;;;;;;;;;;3.50;96.20;;;;;;5055533;28;19909;-74
2022/01/17 09:45:05;;;;;;;;;;;3.50;96.20;;;;;;5042264;28;20007;-73
2022/01/17 09:47:33;;;;;;;;;;;3.50;96.40;;;;;;5041572;28;19940;-74
2022/01/17 09:50:01;;;;;;;;;;;3.40;96.30;;;;;;5041681;28;19913;-73
2022/01/17 09:52:35;;;;;;;;;;;3.50;96.30;;;;;;5041577;28;19913;-73
2022/01/17 09:55:09;;;;;;;;;;;3.50;96.20;;;;;;5025898;28;20160;-76
2022/01/17 09:57:39;;;;;;;;;;;3.50;96.10;;;;;;5040836;28;19916;-72
2022/01/17 10:00:07;;;;;;;;;;;3.50;96.20;;;;;;5034992;28;19913;-72
2022/01/17 10:02:33;;;;;;;;;;;3.60;95.90;;;;;;5062327;28;19943;-74
2022/01/17 10:05:02;;;;;;;;;;;3.60;95.70;;;;;;5061337;28;20146;-72
2022/01/17 10:08:05;;;;;;;;;;;3.60;95.80;;;;;;5045166;28;20300;-73
2022/01/17 10:10:45;;;;;;;;;;;3.60;96.00;;;;;;5060991;28;19908;-75
2022/01/17 10:13:18;;;;;;;;;;;3.60;95.90;;;;;;5061866;28;19987;-81
2022/01/17 10:16:03;;;;;;;;;;;3.60;95.70;;;;;;5051863;28;19928;-75
2022/01/17 10:18:45;;;;;;;;;;;3.60;95.60;;;;;;5057393;28;19913;-73
2022/01/17 10:21:27;;;;;;;;;;;3.70;95.60;;;;;;5042166;28;19913;-73
2022/01/17 10:26:58;;;;;;;;;;;3.70;95.60;;;;;;5057573;28;19913;-72
2022/01/17 10:35:07;;;;;;;;;;;3.70;95.40;;;;;;5040862;28;20112;-76
2022/01/17 10:37:33;;;;;;;;;;;3.70;95.10;;;;;;5070354;28;19976;-78
2022/01/17 10:40:02;;;;;;;;;;;3.60;95.30;;;;;;5061247;28;19913;-78
2022/01/17 10:42:29;;;;;;;;;;;3.60;95.30;;;;;;5062129;28;19908;-78
2022/01/17 10:45:01;;;;;;;;;;;3.70;95.40;;;;;;5060391;28;20085;-78
2022/01/17 10:47:27;;;;;;;;;;;3.70;95.20;;;;;;5044664;28;20277;-79
2022/01/17 10:49:55;;;;;;;;;;;3.60;95.30;;;;;;5033804;28;19963;-78
2022/01/17 10:52:34;;;;;;;;;;;3.70;95.10;;;;;;5040902;28;19909;-76
2022/01/17 10:55:23;;;;;;;;;;;3.70;94.90;;;;;;5039628;28;19917;-80
2022/01/17 10:57:51;;;;;;;;;;;3.70;95.20;;;;;;5058303;28;19923;-77
2022/01/17 11:00:24;;;;;;;;;;;3.70;95.20;;;;;;5062930;28;19912;-77
2022/01/17 11:02:52;;;;;;;;;;;3.70;95.00;;;;;;5064791;28;19908;-78
2022/01/17 11:05:19;;;;;;;;;;;3.70;94.90;;;;;;5080479;28;20226;-78
2022/01/17 11:07:46;;;;;;;;;;;3.60;95.00;;;;;;5065433;28;19920;-77
2022/01/17 11:10:15;;;;;;;;;;;3.60;95.20;;;;;;5064651;28;19932;-78
2022/01/17 11:12:41;;;;;;;;;;;3.70;95.10;;;;;;5064251;28;20139;-77
2022/01/17 11:15:11;;;;;;;;;;;3.70;95.00;;;;;;5064406;28;20469;-76
2022/01/17 11:17:39;;;;;;;;;;;3.70;95.10;;;;;;5064688;28;20016;-75
2022/01/17 11:20:07;;;;;;;;;;;3.70;94.90;;;;;;5045812;28;20200;-76
2022/01/17 11:22:38;;;;;;;;;;;3.80;94.90;;;;;;5064725;28;19909;-75
2022/01/17 11:25:09;;;;;;;;;;;3.80;94.70;;;;;;5063483;28;19909;-75
2022/01/17 11:27:35;;;;;;;;;;;3.80;94.60;;;;;;5064183;28;20107;-75
2022/01/17 11:30:01;;;;;;;;;;;3.90;94.70;;;;;;5047619;28;20224;-75
2022/01/17 11:32:26;;;;;;;;;;;3.90;94.50;;;;;;5047631;28;19948;-74
2022/01/17 11:34:53;;;;;;;;;;;3.90;94.60;;;;;;5064915;28;19920;-76
2022/01/17 11:37:19;;;;;;;;;;;3.90;94.50;;;;;;5047320;28;20155;-73
2022/01/17 11:39:49;;;;;;;;;;;3.90;94.40;;;;;;5063929;28;19909;-72
2022/01/17 11:42:30;;;;;;;;;;;3.90;94.20;;;;;;5060242;28;20061;-73
2022/01/17 11:44:56;;;;;;;;;;;4.00;94.20;;;;;;5062336;28;20224;-75
2022/01/17 11:47:50;;;;;;;;;;;4.00;94.10;;;;;;5065056;28;19917;-75
2022/01/17 11:50:28;;;;;;;;;;;4.00;94.10;;;;;;5063978;28;19908;-75
2022/01/17 11:53:16;;;;;;;;;;;4.00;93.80;;;;;;5062820;28;20219;-74
2022/01/17 11:55:46;;;;;;;;;;;4.00;94.00;;;;;;5058146;28;19917;-75
2022/01/17 11:58:37;;;;;;;;;;;4.00;94.00;;;;;;5046755;28;19920;-75
2022/01/17 12:01:02;;;;;;;;;;;4.00;93.90;;;;;;5047225;28;19954;-75
2022/01/17 12:03:39;;;;;;;;;;;4.10;93.70;;;;;;5064723;28;19944;-75
2022/01/17 12:06:16;;;;;;;;;;;4.10;93.70;;;;;;5047584;28;19923;-75
2022/01/17 12:08:42;;;;;;;;;;;4.20;93.60;;;;;;5064763;28;20139;-75
2022/01/17 12:11:08;;;;;;;;;;;4.30;93.30;;;;;;5062411;28;19947;-75
2022/01/17 12:13:39;;;;;;;;;;;4.30;93.10;;;;;;5064257;28;19931;-75
2022/01/17 12:16:10;;;;;;;;;;;4.40;93.00;;;;;;5046222;28;19916;-75
2022/01/17 12:19:03;;;;;;;;;;;4.40;93.00;;;;;;5062345;28;20300;-75
2022/01/17 12:21:40;;;;;;;;;;;4.50;93.10;;;;;;5041542;28;19908;-75
2022/01/17 12:24:34;;;;;;;;;;;4.60;92.50;;;;;;5063351;28;19913;-74
2022/01/17 12:27:06;;;;;;;;;;;4.60;92.70;;;;;;5062321;28;19909;-75
2022/01/17 12:29:38;;;;;;;;;;;4.70;92.40;;;;;;5062773;28;19928;-74
2022/01/17 12:32:06;;;;;;;;;;;4.80;92.30;;;;;;5063599;28;19909;-74
2022/01/17 12:34:39;;;;;;;;;;;4.90;91.90;;;;;;5062494;28;19967;-75
2022/01/17 12:37:26;;;;;;;;;;;4.80;92.20;;;;;;5062604;28;19928;-75
2022/01/17 12:39:51;;;;;;;;;;;4.80;92.20;;;;;;5063749;28;19916;-74
2022/01/17 12:42:17;;;;;;;;;;;4.80;92.00;;;;;;5063829;28;19913;-75
2022/01/17 12:44:45;;;;;;;;;;;4.80;92.00;;;;;;5062725;28;19964;-75
2022/01/17 12:47:10;;;;;;;;;;;4.70;92.30;;;;;;5062419;28;19909;-75
2022/01/17 12:49:36;;;;;;;;;;;4.60;92.60;;;;;;5060041;28;19990;-75
2022/01/17 12:52:02;;;;;;;;;;;4.70;92.60;;;;;;5078213;28;19916;-75
2022/01/17 12:54:30;;;;;;;;;;;4.70;92.50;;;;;;5045444;28;20035;-75
2022/01/17 12:56:57;;;;;;;;;;;4.70;92.40;;;;;;5046389;28;19912;-75
2022/01/17 12:59:23;;;;;;;;;;;4.70;92.40;;;;;;5062013;28;19916;-75
2022/01/17 13:01:54;;;;;;;;;;;4.70;92.30;;;;;;5062263;28;19944;-75
2022/01/17 13:04:20;;;;;;;;;;;4.90;92.20;;;;;;5045667;28;19930;-75
2022/01/17 13:06:47;;;;;;;;;;;5.10;91.80;;;;;;5044662;28;20103;-75
2022/01/17 13:09:15;;;;;;;;;;;5.10;91.40;;;;;;5061835;28;20227;-74
2022/01/17 13:11:41;;;;;;;;;;;5.10;91.40;;;;;;5044360;28;20107;-74
2022/01/17 13:14:08;;;;;;;;;;;5.00;91.50;;;;;;5062508;28;19982;-74
2022/01/17 13:16:38;;;;;;;;;;;4.90;91.80;;;;;;5061484;28;19908;-74
2022/01/17 13:19:05;;;;;;;;;;;4.80;91.80;;;;;;5062325;28;19991;-74
2022/01/17 13:21:31;;;;;;;;;;;4.80;91.90;;;;;;5043730;28;19920;-74
2022/01/17 13:26:32;;;;;;;;;;;4.60;92.60;;;;;;5062680;28;20207;-74
2022/01/17 13:28:59;;;;;;;;;;;4.50;92.60;;;;;;5062117;28;19913;-74
2022/01/17 13:31:27;;;;;;;;;;;4.40;92.90;;;;;;5045144;28;19943;-74
2022/01/17 13:33:53;;;;;;;;;;;4.40;93.00;;;;;;5045223;28;19909;-74
2022/01/17 13:36:23;;;;;;;;;;;4.40;92.80;;;;;;5060839;28;19915;-74
2022/01/17 13:39:19;;;;;;;;;;;4.40;93.00;;;;;;5061537;28;19912;-74
2022/01/17 13:41:48;;;;;;;;;;;4.30;93.10;;;;;;5056987;28;19943;-74
2022/01/17 13:44:14;;;;;;;;;;;4.40;93.30;;;;;;5042100;28;19909;-74
2022/01/17 13:47:10;;;;;;;;;;;4.40;93.30;;;;;;5042462;28;19916;-74
2022/01/17 13:49:39;;;;;;;;;;;4.30;93.50;;;;;;5027756;28;19915;-74
2022/01/17 13:52:05;;;;;;;;;;;4.40;93.70;;;;;;5042382;28;20242;-74
2022/01/17 13:54:35;;;;;;;;;;;4.30;93.80;;;;;;5041168;28;19909;-74
2022/01/17 13:57:01;;;;;;;;;;;4.30;94.00;;;;;;5025182;28;20315;-73
2022/01/17 13:59:27;;;;;;;;;;;4.30;93.80;;;;;;5025104;28;19909;-73
2022/01/17 14:01:55;;;;;;;;;;;4.20;93.80;;;;;;5024781;28;19915;-73
2022/01/17 14:04:22;;;;;;;;;;;4.20;94.00;;;;;;5042390;28;19909;-73
2022/01/17 14:06:48;;;;;;;;;;;4.20;94.00;;;;;;5045420;28;19909;-73
2022/01/17 14:09:13;;;;;;;;;;;4.20;94.10;;;;;;5061048;28;19924;-74
2022/01/17 14:11:42;;;;;;;;;;;4.20;94.00;;;;;;5049505;23;20176;-67
2022/01/17 14:14:10;;;;;;;;;;;4.20;94.10;;;;;;5018042;28;19914;-67
2022/01/17 14:16:36;;;;;;;;;;;4.20;94.10;;;;;;5000737;28;19932;-68
2022/01/17 14:19:06;;;;;;;;;;;4.20;94.00;;;;;;5002370;28;19914;-67
2022/01/17 14:21:37;;;;;;;;;;;4.10;94.30;;;;;;4981769;28;19910;-67
2022/01/17 14:24:18;;;;;;;;;;;4.10;94.40;;;;;;4989078;28;20016;-67
2022/01/17 14:26:56;;;;;;;;;;;4.10;94.60;;;;;;5002556;28;19914;-67
2022/01/17 14:29:26;;;;;;;;;;;4.10;94.70;;;;;;5002303;28;19949;-68
2022/01/17 14:31:53;;;;;;;;;;;4.00;94.90;;;;;;5002315;28;20126;-67
2022/01/17 14:34:28;;;;;;;;;;;4.00;95.10;;;;;;4983747;28;19956;-70
2022/01/17 14:37:05;;;;;;;;;;;4.00;95.10;;;;;;4979699;28;19910;-67
2022/01/17 14:39:39;;;;;;;;;;;4.00;95.00;;;;;;4985338;28;19920;-68
2022/01/17 14:42:09;;;;;;;;;;;4.00;95.10;;;;;;5001040;28;19938;-68
2022/01/17 14:44:36;;;;;;;;;;;4.10;95.00;;;;;;5001243;28;19914;-68
2022/01/17 14:47:09;;;;;;;;;;;4.00;95.00;;;;;;5001430;28;20047;-68
2022/01/17 14:49:37;;;;;;;;;;;4.00;95.20;;;;;;5001278;28;20209;-68
2022/01/17 14:52:09;;;;;;;;;;;4.00;95.20;;;;;;4986244;28;19914;-68
2022/01/17 14:54:45;;;;;;;;;;;4.00;95.10;;;;;;5004035;28;19981;-68
2022/01/17 15:00:09;;;;;;;;;;;4.00;95.40;;;;;;5005624;28;19981;-68
2022/01/17 15:02:49;;;;;;;;;;;4.00;95.30;;;;;;5005531;28;19941;-68
2022/01/17 15:05:16;;;;;;;;;;;4.00;95.40;;;;;;5004741;28;19957;-68